sensor_id;sensor_type;location;lat;lon;timestamp;P1;durP1;ratioP1;P2;durP2;ratioP2
11791;SDS011;5953;52.372;9.918;2023-05-07T00:01:30;19.03;;;14.40;;
11791;SDS011;5953;52.372;9.918;2023-05-07T00:03:58;19.37;;;15.10;;
11791;SDS011;5953;52.372;9.918;2023-05-07T00:06:26;17.93;;;13.67;;
11791;SDS011;5953;52.372;9.918;2023-05-07T00:08:55;19.73;;;14.97;;
11791;SDS011;5953;52.372;9.918;2023-05-07T00:11:24;18.87;;;15.27;;
11791;SDS011;5953;52.372;9.918;2023-05-07T00:13:52;19.07;;;13.87;;
11791;SDS011;5953;52.372;9.918;2023-05-07T00:16:19;20.90;;;16.93;;
11791;SDS011;5953;52.372;9.918;2023-05-07T00:18:48;19.67;;;15.93;;
11791;SDS011;5953;52.372;9.918;2023-05-07T00:21:16;21.97;;;12.40;;
11791;SDS011;5953;52.372;9.918;2023-05-07T00:23:44;21.20;;;16.10;;
11791;SDS011;5953;52.372;9.918;2023-05-07T00:26:12;20.70;;;14.00;;
11791;SDS011;5953;52.372;9.918;2023-05-07T00:28:39;20.50;;;15.20;;
11791;SDS011;5953;52.372;9.918;2023-05-07T00:31:07;22.00;;;15.93;;
11791;SDS011;5953;52.372;9.918;2023-05-07T00:33:35;17.93;;;11.40;;
11791;SDS011;5953;52.372;9.918;2023-05-07T00:36:04;22.80;;;15.27;;
11791;SDS011;5953;52.372;9.918;2023-05-07T00:38:32;21.83;;;17.57;;
11791;SDS011;5953;52.372;9.918;2023-05-07T00:41:00;23.17;;;17.03;;
11791;SDS011;5953;52.372;9.918;2023-05-07T00:43:28;20.77;;;15.63;;
11791;SDS011;5953;52.372;9.918;2023-05-07T00:45:56;19.83;;;14.60;;
11791;SDS011;5953;52.372;9.918;2023-05-07T00:48:24;24.23;;;17.20;;
11791;SDS011;5953;52.372;9.918;2023-05-07T00:50:53;24.53;;;17.43;;
11791;SDS011;5953;52.372;9.918;2023-05-07T00:53:22;20.43;;;14.23;;
11791;SDS011;5953;52.372;9.918;2023-05-07T00:55:50;24.37;;;16.20;;
11791;SDS011;5953;52.372;9.918;2023-05-07T00:58:18;25.10;;;18.10;;
11791;SDS011;5953;52.372;9.918;2023-05-07T01:00:47;29.10;;;18.13;;
11791;SDS011;5953;52.372;9.918;2023-05-07T01:03:15;31.10;;;20.23;;
11791;SDS011;5953;52.372;9.918;2023-05-07T01:05:43;25.07;;;17.63;;
11791;SDS011;5953;52.372;9.918;2023-05-07T01:08:13;27.07;;;18.93;;
11791;SDS011;5953;52.372;9.918;2023-05-07T01:10:43;27.53;;;19.17;;
11791;SDS011;5953;52.372;9.918;2023-05-07T01:13:12;25.57;;;17.27;;
11791;SDS011;5953;52.372;9.918;2023-05-07T01:15:42;25.93;;;20.00;;
11791;SDS011;5953;52.372;9.918;2023-05-07T01:18:10;25.13;;;17.20;;
11791;SDS011;5953;52.372;9.918;2023-05-07T01:20:38;29.10;;;16.63;;
11791;SDS011;5953;52.372;9.918;2023-05-07T01:23:07;22.70;;;17.03;;
11791;SDS011;5953;52.372;9.918;2023-05-07T01:25:35;28.73;;;18.13;;
11791;SDS011;5953;52.372;9.918;2023-05-07T01:28:03;25.70;;;18.70;;
11791;SDS011;5953;52.372;9.918;2023-05-07T01:30:32;25.43;;;17.40;;
11791;SDS011;5953;52.372;9.918;2023-05-07T01:33:03;28.37;;;19.40;;
11791;SDS011;5953;52.372;9.918;2023-05-07T01:35:34;28.27;;;20.07;;
11791;SDS011;5953;52.372;9.918;2023-05-07T01:38:06;26.57;;;18.23;;
11791;SDS011;5953;52.372;9.918;2023-05-07T01:40:34;23.33;;;15.40;;
11791;SDS011;5953;52.372;9.918;2023-05-07T01:43:02;21.80;;;13.63;;
11791;SDS011;5953;52.372;9.918;2023-05-07T01:45:30;24.37;;;16.70;;
11791;SDS011;5953;52.372;9.918;2023-05-07T01:47:59;21.17;;;14.10;;
11791;SDS011;5953;52.372;9.918;2023-05-07T01:50:29;20.97;;;16.27;;
11791;SDS011;5953;52.372;9.918;2023-05-07T01:52:57;18.33;;;13.70;;
11791;SDS011;5953;52.372;9.918;2023-05-07T01:55:27;19.67;;;12.93;;
11791;SDS011;5953;52.372;9.918;2023-05-07T01:57:55;18.03;;;11.50;;
11791;SDS011;5953;52.372;9.918;2023-05-07T02:00:23;18.27;;;12.30;;
11791;SDS011;5953;52.372;9.918;2023-05-07T02:02:51;17.03;;;10.93;;
11791;SDS011;5953;52.372;9.918;2023-05-07T02:05:19;18.20;;;11.47;;
11791;SDS011;5953;52.372;9.918;2023-05-07T02:07:47;13.37;;;8.70;;
11791;SDS011;5953;52.372;9.918;2023-05-07T02:10:14;12.80;;;10.00;;
11791;SDS011;5953;52.372;9.918;2023-05-07T02:12:43;17.27;;;11.73;;
11791;SDS011;5953;52.372;9.918;2023-05-07T02:15:11;14.17;;;9.70;;
11791;SDS011;5953;52.372;9.918;2023-05-07T02:17:39;12.93;;;9.63;;
11791;SDS011;5953;52.372;9.918;2023-05-07T02:20:26;14.00;;;8.87;;
11791;SDS011;5953;52.372;9.918;2023-05-07T02:22:53;11.27;;;8.37;;
11791;SDS011;5953;52.372;9.918;2023-05-07T02:25:21;11.97;;;8.90;;
11791;SDS011;5953;52.372;9.918;2023-05-07T02:27:50;10.97;;;8.77;;
11791;SDS011;5953;52.372;9.918;2023-05-07T02:30:18;10.23;;;7.20;;
11791;SDS011;5953;52.372;9.918;2023-05-07T02:32:47;11.47;;;7.93;;
11791;SDS011;5953;52.372;9.918;2023-05-07T02:35:15;11.40;;;8.03;;
11791;SDS011;5953;52.372;9.918;2023-05-07T02:37:43;13.90;;;8.87;;
11791;SDS011;5953;52.372;9.918;2023-05-07T02:40:11;14.47;;;9.97;;
11791;SDS011;5953;52.372;9.918;2023-05-07T02:42:39;14.90;;;10.57;;
11791;SDS011;5953;52.372;9.918;2023-05-07T02:45:09;11.03;;;7.37;;
11791;SDS011;5953;52.372;9.918;2023-05-07T02:47:37;12.77;;;10.40;;
11791;SDS011;5953;52.372;9.918;2023-05-07T02:50:05;12.93;;;9.37;;
11791;SDS011;5953;52.372;9.918;2023-05-07T02:52:34;11.80;;;7.80;;
11791;SDS011;5953;52.372;9.918;2023-05-07T02:55:02;10.60;;;8.03;;
11791;SDS011;5953;52.372;9.918;2023-05-07T02:57:31;8.30;;;5.53;;
11791;SDS011;5953;52.372;9.918;2023-05-07T02:59:58;10.40;;;7.03;;
11791;SDS011;5953;52.372;9.918;2023-05-07T03:02:27;12.43;;;9.77;;
11791;SDS011;5953;52.372;9.918;2023-05-07T03:04:55;13.17;;;7.93;;
11791;SDS011;5953;52.372;9.918;2023-05-07T03:07:23;10.40;;;8.03;;
11791;SDS011;5953;52.372;9.918;2023-05-07T03:09:51;15.83;;;9.37;;
11791;SDS011;5953;52.372;9.918;2023-05-07T03:12:20;16.67;;;10.87;;
11791;SDS011;5953;52.372;9.918;2023-05-07T03:14:48;14.97;;;10.50;;
11791;SDS011;5953;52.372;9.918;2023-05-07T03:17:16;15.67;;;11.87;;
11791;SDS011;5953;52.372;9.918;2023-05-07T03:19:45;14.10;;;9.07;;
11791;SDS011;5953;52.372;9.918;2023-05-07T03:22:13;13.40;;;8.13;;
11791;SDS011;5953;52.372;9.918;2023-05-07T03:24:41;10.03;;;7.23;;
11791;SDS011;5953;52.372;9.918;2023-05-07T03:27:09;15.03;;;9.20;;
11791;SDS011;5953;52.372;9.918;2023-05-07T03:29:37;9.10;;;6.07;;
11791;SDS011;5953;52.372;9.918;2023-05-07T03:32:05;10.87;;;6.40;;
11791;SDS011;5953;52.372;9.918;2023-05-07T03:34:33;12.70;;;7.80;;
11791;SDS011;5953;52.372;9.918;2023-05-07T03:37:02;11.63;;;7.97;;
11791;SDS011;5953;52.372;9.918;2023-05-07T03:39:30;13.03;;;9.00;;
11791;SDS011;5953;52.372;9.918;2023-05-07T03:41:58;10.27;;;8.53;;
11791;SDS011;5953;52.372;9.918;2023-05-07T03:44:27;8.83;;;5.77;;
11791;SDS011;5953;52.372;9.918;2023-05-07T03:46:54;10.00;;;7.13;;
11791;SDS011;5953;52.372;9.918;2023-05-07T03:49:22;8.57;;;5.73;;
11791;SDS011;5953;52.372;9.918;2023-05-07T03:51:50;12.10;;;6.90;;
11791;SDS011;5953;52.372;9.918;2023-05-07T03:54:19;11.97;;;6.80;;
11791;SDS011;5953;52.372;9.918;2023-05-07T03:56:47;9.63;;;7.23;;
11791;SDS011;5953;52.372;9.918;2023-05-07T03:59:15;10.33;;;7.70;;
11791;SDS011;5953;52.372;9.918;2023-05-07T04:01:42;8.83;;;6.60;;
11791;SDS011;5953;52.372;9.918;2023-05-07T04:04:11;9.47;;;5.77;;
11791;SDS011;5953;52.372;9.918;2023-05-07T04:06:39;8.73;;;6.63;;
11791;SDS011;5953;52.372;9.918;2023-05-07T04:09:07;10.73;;;7.40;;
11791;SDS011;5953;52.372;9.918;2023-05-07T04:11:36;8.37;;;6.13;;
11791;SDS011;5953;52.372;9.918;2023-05-07T04:14:06;7.67;;;6.17;;
11791;SDS011;5953;52.372;9.918;2023-05-07T04:16:34;9.00;;;6.87;;
11791;SDS011;5953;52.372;9.918;2023-05-07T04:19:02;11.57;;;8.97;;
11791;SDS011;5953;52.372;9.918;2023-05-07T04:21:29;12.60;;;9.27;;
11791;SDS011;5953;52.372;9.918;2023-05-07T04:23:57;10.57;;;7.87;;
11791;SDS011;5953;52.372;9.918;2023-05-07T04:26:25;10.37;;;8.23;;
11791;SDS011;5953;52.372;9.918;2023-05-07T04:28:55;10.43;;;7.40;;
11791;SDS011;5953;52.372;9.918;2023-05-07T04:31:24;12.80;;;10.27;;
11791;SDS011;5953;52.372;9.918;2023-05-07T04:33:52;13.40;;;7.07;;
11791;SDS011;5953;52.372;9.918;2023-05-07T04:36:19;13.13;;;7.43;;
11791;SDS011;5953;52.372;9.918;2023-05-07T04:38:47;13.73;;;9.10;;
11791;SDS011;5953;52.372;9.918;2023-05-07T04:41:15;9.73;;;6.97;;
11791;SDS011;5953;52.372;9.918;2023-05-07T04:43:43;12.07;;;8.50;;
11791;SDS011;5953;52.372;9.918;2023-05-07T04:46:12;10.60;;;8.07;;
11791;SDS011;5953;52.372;9.918;2023-05-07T04:48:40;11.20;;;8.37;;
11791;SDS011;5953;52.372;9.918;2023-05-07T04:51:08;9.77;;;7.63;;
11791;SDS011;5953;52.372;9.918;2023-05-07T04:53:35;7.37;;;5.47;;
11791;SDS011;5953;52.372;9.918;2023-05-07T04:56:04;12.07;;;7.60;;
11791;SDS011;5953;52.372;9.918;2023-05-07T04:58:32;9.87;;;6.87;;
11791;SDS011;5953;52.372;9.918;2023-05-07T05:01:00;7.37;;;5.93;;
11791;SDS011;5953;52.372;9.918;2023-05-07T05:03:30;8.90;;;5.00;;
11791;SDS011;5953;52.372;9.918;2023-05-07T05:05:58;6.10;;;4.77;;
11791;SDS011;5953;52.372;9.918;2023-05-07T05:08:26;7.50;;;5.33;;
11791;SDS011;5953;52.372;9.918;2023-05-07T05:10:54;8.97;;;6.77;;
11791;SDS011;5953;52.372;9.918;2023-05-07T05:13:22;11.43;;;7.87;;
11791;SDS011;5953;52.372;9.918;2023-05-07T05:15:49;9.37;;;6.13;;
11791;SDS011;5953;52.372;9.918;2023-05-07T05:18:17;8.53;;;6.73;;
11791;SDS011;5953;52.372;9.918;2023-05-07T05:20:47;9.10;;;6.60;;
11791;SDS011;5953;52.372;9.918;2023-05-07T05:23:14;11.73;;;8.23;;
11791;SDS011;5953;52.372;9.918;2023-05-07T05:25:42;9.13;;;6.77;;
11791;SDS011;5953;52.372;9.918;2023-05-07T05:28:10;8.20;;;6.50;;
11791;SDS011;5953;52.372;9.918;2023-05-07T05:30:38;5.83;;;4.47;;
11791;SDS011;5953;52.372;9.918;2023-05-07T05:33:06;9.73;;;7.93;;
11791;SDS011;5953;52.372;9.918;2023-05-07T05:35:34;8.47;;;7.33;;
11791;SDS011;5953;52.372;9.918;2023-05-07T05:38:03;10.20;;;8.27;;
11791;SDS011;5953;52.372;9.918;2023-05-07T05:40:31;4.97;;;4.47;;
11791;SDS011;5953;52.372;9.918;2023-05-07T05:42:59;7.90;;;5.40;;
11791;SDS011;5953;52.372;9.918;2023-05-07T05:45:27;9.07;;;7.50;;
11791;SDS011;5953;52.372;9.918;2023-05-07T05:47:55;9.87;;;8.40;;
11791;SDS011;5953;52.372;9.918;2023-05-07T05:50:24;7.90;;;6.70;;
11791;SDS011;5953;52.372;9.918;2023-05-07T05:52:51;8.37;;;5.83;;
11791;SDS011;5953;52.372;9.918;2023-05-07T05:55:21;6.87;;;4.47;;
11791;SDS011;5953;52.372;9.918;2023-05-07T05:57:49;9.13;;;7.23;;
11791;SDS011;5953;52.372;9.918;2023-05-07T06:00:17;8.20;;;6.97;;
11791;SDS011;5953;52.372;9.918;2023-05-07T06:02:45;13.60;;;5.77;;
11791;SDS011;5953;52.372;9.918;2023-05-07T06:05:13;10.83;;;7.67;;
11791;SDS011;5953;52.372;9.918;2023-05-07T06:07:41;6.83;;;5.33;;
11791;SDS011;5953;52.372;9.918;2023-05-07T06:10:09;5.50;;;4.07;;
11791;SDS011;5953;52.372;9.918;2023-05-07T06:12:50;8.17;;;6.40;;
11791;SDS011;5953;52.372;9.918;2023-05-07T06:15:18;7.37;;;5.60;;
11791;SDS011;5953;52.372;9.918;2023-05-07T06:17:46;5.90;;;5.30;;
11791;SDS011;5953;52.372;9.918;2023-05-07T06:20:14;8.10;;;7.27;;
11791;SDS011;5953;52.372;9.918;2023-05-07T06:22:42;7.37;;;5.73;;
11791;SDS011;5953;52.372;9.918;2023-05-07T06:25:10;8.00;;;7.07;;
11791;SDS011;5953;52.372;9.918;2023-05-07T06:27:38;7.67;;;6.03;;
11791;SDS011;5953;52.372;9.918;2023-05-07T06:30:08;7.70;;;5.90;;
11791;SDS011;5953;52.372;9.918;2023-05-07T06:32:37;6.40;;;5.13;;
11791;SDS011;5953;52.372;9.918;2023-05-07T06:35:05;8.70;;;6.63;;
11791;SDS011;5953;52.372;9.918;2023-05-07T06:37:33;9.27;;;6.50;;
11791;SDS011;5953;52.372;9.918;2023-05-07T06:40:01;10.30;;;9.20;;
11791;SDS011;5953;52.372;9.918;2023-05-07T06:42:29;10.53;;;9.20;;
11791;SDS011;5953;52.372;9.918;2023-05-07T06:44:57;10.63;;;8.87;;
11791;SDS011;5953;52.372;9.918;2023-05-07T06:47:26;9.53;;;7.27;;
11791;SDS011;5953;52.372;9.918;2023-05-07T06:49:54;9.40;;;7.77;;
11791;SDS011;5953;52.372;9.918;2023-05-07T06:52:22;12.50;;;9.30;;
11791;SDS011;5953;52.372;9.918;2023-05-07T06:54:51;11.00;;;9.40;;
11791;SDS011;5953;52.372;9.918;2023-05-07T06:57:19;11.20;;;8.33;;
11791;SDS011;5953;52.372;9.918;2023-05-07T06:59:47;9.57;;;7.53;;
11791;SDS011;5953;52.372;9.918;2023-05-07T07:02:15;10.50;;;8.50;;
11791;SDS011;5953;52.372;9.918;2023-05-07T07:04:45;9.17;;;7.30;;
11791;SDS011;5953;52.372;9.918;2023-05-07T07:07:13;9.93;;;7.77;;
11791;SDS011;5953;52.372;9.918;2023-05-07T07:09:41;11.70;;;8.13;;
11791;SDS011;5953;52.372;9.918;2023-05-07T07:12:10;11.07;;;9.50;;
11791;SDS011;5953;52.372;9.918;2023-05-07T07:14:37;11.73;;;9.17;;
11791;SDS011;5953;52.372;9.918;2023-05-07T07:17:06;11.83;;;10.63;;
11791;SDS011;5953;52.372;9.918;2023-05-07T07:19:34;7.90;;;6.90;;
11791;SDS011;5953;52.372;9.918;2023-05-07T07:22:03;12.97;;;10.90;;
11791;SDS011;5953;52.372;9.918;2023-05-07T07:24:31;8.63;;;7.20;;
11791;SDS011;5953;52.372;9.918;2023-05-07T07:26:59;8.83;;;6.83;;
11791;SDS011;5953;52.372;9.918;2023-05-07T07:29:27;9.77;;;8.60;;
11791;SDS011;5953;52.372;9.918;2023-05-07T07:31:55;5.17;;;4.60;;
11791;SDS011;5953;52.372;9.918;2023-05-07T07:34:24;9.63;;;8.67;;
11791;SDS011;5953;52.372;9.918;2023-05-07T07:36:51;8.33;;;6.93;;
11791;SDS011;5953;52.372;9.918;2023-05-07T07:39:21;9.80;;;7.47;;
11791;SDS011;5953;52.372;9.918;2023-05-07T07:41:48;9.10;;;7.80;;
11791;SDS011;5953;52.372;9.918;2023-05-07T07:44:16;6.53;;;5.13;;
11791;SDS011;5953;52.372;9.918;2023-05-07T07:46:44;8.67;;;7.63;;
11791;SDS011;5953;52.372;9.918;2023-05-07T07:49:12;20.30;;;6.97;;
11791;SDS011;5953;52.372;9.918;2023-05-07T07:51:40;8.50;;;7.30;;
11791;SDS011;5953;52.372;9.918;2023-05-07T07:54:08;7.50;;;6.13;;
11791;SDS011;5953;52.372;9.918;2023-05-07T07:56:38;8.53;;;6.70;;
11791;SDS011;5953;52.372;9.918;2023-05-07T07:59:06;9.47;;;8.47;;
11791;SDS011;5953;52.372;9.918;2023-05-07T08:01:34;6.43;;;5.17;;
11791;SDS011;5953;52.372;9.918;2023-05-07T08:04:02;6.83;;;5.87;;
11791;SDS011;5953;52.372;9.918;2023-05-07T08:06:32;8.87;;;7.93;;
11791;SDS011;5953;52.372;9.918;2023-05-07T08:08:59;7.13;;;5.90;;
11791;SDS011;5953;52.372;9.918;2023-05-07T08:11:28;7.97;;;6.93;;
11791;SDS011;5953;52.372;9.918;2023-05-07T08:13:57;8.70;;;6.67;;
11791;SDS011;5953;52.372;9.918;2023-05-07T08:16:25;7.23;;;6.07;;
11791;SDS011;5953;52.372;9.918;2023-05-07T08:18:56;7.20;;;5.90;;
11791;SDS011;5953;52.372;9.918;2023-05-07T08:21:24;8.80;;;6.40;;
11791;SDS011;5953;52.372;9.918;2023-05-07T08:23:52;9.63;;;8.43;;
11791;SDS011;5953;52.372;9.918;2023-05-07T08:26:20;8.90;;;5.67;;
11791;SDS011;5953;52.372;9.918;2023-05-07T08:28:48;7.57;;;5.77;;
11791;SDS011;5953;52.372;9.918;2023-05-07T08:31:17;7.23;;;5.63;;
11791;SDS011;5953;52.372;9.918;2023-05-07T08:33:45;7.33;;;6.50;;
11791;SDS011;5953;52.372;9.918;2023-05-07T08:36:13;9.23;;;7.50;;
11791;SDS011;5953;52.372;9.918;2023-05-07T08:38:41;7.43;;;5.53;;
11791;SDS011;5953;52.372;9.918;2023-05-07T08:41:11;9.00;;;7.10;;
11791;SDS011;5953;52.372;9.918;2023-05-07T08:43:40;8.03;;;5.83;;
11791;SDS011;5953;52.372;9.918;2023-05-07T08:46:16;5.97;;;4.77;;
11791;SDS011;5953;52.372;9.918;2023-05-07T08:48:47;9.87;;;6.50;;
11791;SDS011;5953;52.372;9.918;2023-05-07T08:51:17;8.80;;;6.23;;
11791;SDS011;5953;52.372;9.918;2023-05-07T08:53:47;9.40;;;6.87;;
11791;SDS011;5953;52.372;9.918;2023-05-07T08:56:16;8.30;;;7.50;;
11791;SDS011;5953;52.372;9.918;2023-05-07T08:58:48;9.20;;;7.57;;
11791;SDS011;5953;52.372;9.918;2023-05-07T09:01:16;10.60;;;9.50;;
11791;SDS011;5953;52.372;9.918;2023-05-07T09:03:45;10.07;;;8.50;;
11791;SDS011;5953;52.372;9.918;2023-05-07T09:06:14;10.50;;;7.93;;
11791;SDS011;5953;52.372;9.918;2023-05-07T09:08:44;9.27;;;8.17;;
11791;SDS011;5953;52.372;9.918;2023-05-07T09:11:19;6.97;;;5.87;;
11791;SDS011;5953;52.372;9.918;2023-05-07T09:13:48;7.53;;;6.03;;
11791;SDS011;5953;52.372;9.918;2023-05-07T09:16:17;6.80;;;5.77;;
11791;SDS011;5953;52.372;9.918;2023-05-07T09:18:52;7.53;;;6.73;;
11791;SDS011;5953;52.372;9.918;2023-05-07T09:21:21;9.13;;;7.53;;
11791;SDS011;5953;52.372;9.918;2023-05-07T09:23:50;7.87;;;6.30;;
11791;SDS011;5953;52.372;9.918;2023-05-07T09:26:20;9.47;;;8.20;;
11791;SDS011;5953;52.372;9.918;2023-05-07T09:28:49;9.73;;;8.83;;
11791;SDS011;5953;52.372;9.918;2023-05-07T09:31:16;7.73;;;6.37;;
11791;SDS011;5953;52.372;9.918;2023-05-07T09:33:47;9.20;;;8.23;;
11791;SDS011;5953;52.372;9.918;2023-05-07T09:36:16;7.73;;;6.83;;
11791;SDS011;5953;52.372;9.918;2023-05-07T09:38:45;8.57;;;7.40;;
11791;SDS011;5953;52.372;9.918;2023-05-07T09:41:13;8.87;;;7.97;;
11791;SDS011;5953;52.372;9.918;2023-05-07T09:43:42;7.53;;;6.63;;
11791;SDS011;5953;52.372;9.918;2023-05-07T09:46:11;7.27;;;5.50;;
11791;SDS011;5953;52.372;9.918;2023-05-07T09:48:42;9.37;;;8.00;;
11791;SDS011;5953;52.372;9.918;2023-05-07T09:51:13;10.43;;;9.37;;
11791;SDS011;5953;52.372;9.918;2023-05-07T09:53:48;8.33;;;7.37;;
11791;SDS011;5953;52.372;9.918;2023-05-07T09:56:19;11.27;;;9.57;;
11791;SDS011;5953;52.372;9.918;2023-05-07T09:58:47;9.53;;;8.03;;
11791;SDS011;5953;52.372;9.918;2023-05-07T10:01:17;7.33;;;5.83;;
11791;SDS011;5953;52.372;9.918;2023-05-07T10:03:48;10.03;;;8.67;;
11791;SDS011;5953;52.372;9.918;2023-05-07T10:06:19;9.37;;;7.93;;
11791;SDS011;5953;52.372;9.918;2023-05-07T10:08:48;11.13;;;10.03;;
11791;SDS011;5953;52.372;9.918;2023-05-07T10:11:17;7.43;;;6.40;;
11791;SDS011;5953;52.372;9.918;2023-05-07T10:13:45;8.00;;;6.97;;
11791;SDS011;5953;52.372;9.918;2023-05-07T10:16:13;12.00;;;8.20;;
11791;SDS011;5953;52.372;9.918;2023-05-07T10:18:42;7.00;;;6.30;;
11791;SDS011;5953;52.372;9.918;2023-05-07T10:21:11;7.33;;;6.33;;
11791;SDS011;5953;52.372;9.918;2023-05-07T10:23:45;7.93;;;6.93;;
11791;SDS011;5953;52.372;9.918;2023-05-07T10:26:17;10.40;;;8.50;;
11791;SDS011;5953;52.372;9.918;2023-05-07T10:28:48;7.73;;;6.63;;
11791;SDS011;5953;52.372;9.918;2023-05-07T10:31:28;7.00;;;5.60;;
11791;SDS011;5953;52.372;9.918;2023-05-07T10:34:07;6.20;;;5.03;;
11791;SDS011;5953;52.372;9.918;2023-05-07T10:36:38;7.23;;;6.37;;
11791;SDS011;5953;52.372;9.918;2023-05-07T10:39:10;7.00;;;5.63;;
11791;SDS011;5953;52.372;9.918;2023-05-07T10:41:38;8.87;;;8.03;;
11791;SDS011;5953;52.372;9.918;2023-05-07T10:44:06;9.73;;;7.07;;
11791;SDS011;5953;52.372;9.918;2023-05-07T10:46:34;6.43;;;5.80;;
11791;SDS011;5953;52.372;9.918;2023-05-07T10:49:08;7.07;;;6.37;;
11791;SDS011;5953;52.372;9.918;2023-05-07T10:51:38;6.07;;;4.73;;
11791;SDS011;5953;52.372;9.918;2023-05-07T10:56:56;7.37;;;5.77;;
11791;SDS011;5953;52.372;9.918;2023-05-07T10:59:31;7.90;;;6.63;;
11791;SDS011;5953;52.372;9.918;2023-05-07T11:02:01;7.97;;;7.13;;
11791;SDS011;5953;52.372;9.918;2023-05-07T11:04:32;5.70;;;5.13;;
11791;SDS011;5953;52.372;9.918;2023-05-07T11:10:01;8.20;;;7.40;;
11791;SDS011;5953;52.372;9.918;2023-05-07T11:12:46;6.33;;;5.60;;
11791;SDS011;5953;52.372;9.918;2023-05-07T11:15:15;6.70;;;5.77;;
11791;SDS011;5953;52.372;9.918;2023-05-07T11:18:01;7.63;;;6.93;;
11791;SDS011;5953;52.372;9.918;2023-05-07T11:20:50;5.97;;;5.30;;
11791;SDS011;5953;52.372;9.918;2023-05-07T11:26:30;5.50;;;4.63;;
11791;SDS011;5953;52.372;9.918;2023-05-07T11:28:59;5.67;;;5.17;;
11791;SDS011;5953;52.372;9.918;2023-05-07T11:31:28;9.23;;;5.07;;
11791;SDS011;5953;52.372;9.918;2023-05-07T11:33:56;6.63;;;5.90;;
11791;SDS011;5953;52.372;9.918;2023-05-07T11:36:25;8.37;;;5.47;;
11791;SDS011;5953;52.372;9.918;2023-05-07T11:38:58;6.73;;;6.03;;
11791;SDS011;5953;52.372;9.918;2023-05-07T11:41:34;16.40;;;6.70;;
11791;SDS011;5953;52.372;9.918;2023-05-07T11:44:03;6.77;;;6.10;;
11791;SDS011;5953;52.372;9.918;2023-05-07T11:46:31;6.90;;;5.40;;
11791;SDS011;5953;52.372;9.918;2023-05-07T11:49:01;5.43;;;4.67;;
11791;SDS011;5953;52.372;9.918;2023-05-07T11:51:29;4.70;;;4.13;;
11791;SDS011;5953;52.372;9.918;2023-05-07T11:53:57;7.03;;;5.40;;
11791;SDS011;5953;52.372;9.918;2023-05-07T11:56:25;4.87;;;4.43;;
11791;SDS011;5953;52.372;9.918;2023-05-07T11:58:54;4.73;;;4.07;;
11791;SDS011;5953;52.372;9.918;2023-05-07T12:01:22;6.17;;;5.57;;
11791;SDS011;5953;52.372;9.918;2023-05-07T12:03:52;7.10;;;5.87;;
11791;SDS011;5953;52.372;9.918;2023-05-07T12:06:20;5.87;;;4.40;;
11791;SDS011;5953;52.372;9.918;2023-05-07T12:08:48;6.83;;;4.83;;
11791;SDS011;5953;52.372;9.918;2023-05-07T12:11:16;6.40;;;5.60;;
11791;SDS011;5953;52.372;9.918;2023-05-07T12:13:49;5.33;;;4.83;;
11791;SDS011;5953;52.372;9.918;2023-05-07T12:16:19;4.77;;;4.27;;
11791;SDS011;5953;52.372;9.918;2023-05-07T12:18:47;4.53;;;4.13;;
11791;SDS011;5953;52.372;9.918;2023-05-07T12:21:15;4.43;;;3.77;;
11791;SDS011;5953;52.372;9.918;2023-05-07T12:23:44;5.37;;;4.87;;
11791;SDS011;5953;52.372;9.918;2023-05-07T12:26:12;4.73;;;3.77;;
11791;SDS011;5953;52.372;9.918;2023-05-07T12:28:41;5.23;;;4.73;;
11791;SDS011;5953;52.372;9.918;2023-05-07T12:31:08;4.53;;;2.90;;
11791;SDS011;5953;52.372;9.918;2023-05-07T12:33:38;4.40;;;3.97;;
11791;SDS011;5953;52.372;9.918;2023-05-07T12:36:07;5.87;;;5.30;;
11791;SDS011;5953;52.372;9.918;2023-05-07T12:38:36;4.90;;;4.00;;
11791;SDS011;5953;52.372;9.918;2023-05-07T12:41:05;5.20;;;4.70;;
11791;SDS011;5953;52.372;9.918;2023-05-07T12:43:34;4.40;;;4.00;;
11791;SDS011;5953;52.372;9.918;2023-05-07T12:46:03;6.07;;;5.47;;
11791;SDS011;5953;52.372;9.918;2023-05-07T12:48:32;5.60;;;5.00;;
11791;SDS011;5953;52.372;9.918;2023-05-07T12:51:01;4.57;;;3.47;;
11791;SDS011;5953;52.372;9.918;2023-05-07T12:53:30;4.77;;;4.27;;
11791;SDS011;5953;52.372;9.918;2023-05-07T12:55:58;6.10;;;5.50;;
11791;SDS011;5953;52.372;9.918;2023-05-07T12:58:30;5.60;;;5.10;;
11791;SDS011;5953;52.372;9.918;2023-05-07T13:01:04;5.90;;;5.13;;
11791;SDS011;5953;52.372;9.918;2023-05-07T13:03:33;6.83;;;6.13;;
11791;SDS011;5953;52.372;9.918;2023-05-07T13:06:04;11.87;;;8.80;;
11791;SDS011;5953;52.372;9.918;2023-05-07T13:08:35;6.83;;;5.67;;
11791;SDS011;5953;52.372;9.918;2023-05-07T13:11:07;5.97;;;4.93;;
11791;SDS011;5953;52.372;9.918;2023-05-07T13:13:37;7.10;;;6.43;;
11791;SDS011;5953;52.372;9.918;2023-05-07T13:16:07;9.40;;;7.40;;
11791;SDS011;5953;52.372;9.918;2023-05-07T13:18:36;7.80;;;7.00;;
11791;SDS011;5953;52.372;9.918;2023-05-07T13:21:06;7.23;;;6.53;;
11791;SDS011;5953;52.372;9.918;2023-05-07T13:23:34;5.07;;;4.57;;
11791;SDS011;5953;52.372;9.918;2023-05-07T13:26:04;5.73;;;4.73;;
11791;SDS011;5953;52.372;9.918;2023-05-07T13:28:51;6.20;;;5.43;;
11791;SDS011;5953;52.372;9.918;2023-05-07T13:31:19;6.33;;;5.23;;
11791;SDS011;5953;52.372;9.918;2023-05-07T13:33:47;7.20;;;6.50;;
11791;SDS011;5953;52.372;9.918;2023-05-07T13:36:17;8.13;;;7.33;;
11791;SDS011;5953;52.372;9.918;2023-05-07T13:38:47;5.80;;;5.20;;
11791;SDS011;5953;52.372;9.918;2023-05-07T13:41:15;7.20;;;6.50;;
11791;SDS011;5953;52.372;9.918;2023-05-07T13:43:43;6.90;;;5.93;;
11791;SDS011;5953;52.372;9.918;2023-05-07T13:46:11;6.00;;;5.40;;
11791;SDS011;5953;52.372;9.918;2023-05-07T13:48:39;7.20;;;6.03;;
11791;SDS011;5953;52.372;9.918;2023-05-07T13:51:07;4.77;;;3.93;;
11791;SDS011;5953;52.372;9.918;2023-05-07T13:53:36;4.77;;;4.13;;
11791;SDS011;5953;52.372;9.918;2023-05-07T13:56:04;5.07;;;4.53;;
11791;SDS011;5953;52.372;9.918;2023-05-07T13:58:32;5.97;;;4.83;;
11791;SDS011;5953;52.372;9.918;2023-05-07T14:01:13;4.87;;;4.23;;
11791;SDS011;5953;52.372;9.918;2023-05-07T14:03:41;5.33;;;4.73;;
11791;SDS011;5953;52.372;9.918;2023-05-07T14:06:10;6.17;;;5.57;;
11791;SDS011;5953;52.372;9.918;2023-05-07T14:08:39;5.60;;;3.80;;
11791;SDS011;5953;52.372;9.918;2023-05-07T14:11:07;5.17;;;3.77;;
11791;SDS011;5953;52.372;9.918;2023-05-07T14:13:35;6.80;;;5.07;;
11791;SDS011;5953;52.372;9.918;2023-05-07T14:16:03;4.73;;;4.33;;
11791;SDS011;5953;52.372;9.918;2023-05-07T14:18:32;5.70;;;4.80;;
11791;SDS011;5953;52.372;9.918;2023-05-07T14:21:00;5.27;;;4.77;;
11791;SDS011;5953;52.372;9.918;2023-05-07T14:23:28;6.40;;;5.80;;
11791;SDS011;5953;52.372;9.918;2023-05-07T14:25:57;3.27;;;2.93;;
11791;SDS011;5953;52.372;9.918;2023-05-07T14:28:25;5.87;;;4.90;;
11791;SDS011;5953;52.372;9.918;2023-05-07T14:30:53;6.77;;;6.17;;
11791;SDS011;5953;52.372;9.918;2023-05-07T14:33:21;6.90;;;6.20;;
11791;SDS011;5953;52.372;9.918;2023-05-07T14:35:49;5.33;;;4.70;;
11791;SDS011;5953;52.372;9.918;2023-05-07T14:38:17;5.87;;;4.87;;
11791;SDS011;5953;52.372;9.918;2023-05-07T14:40:45;5.00;;;4.20;;
11791;SDS011;5953;52.372;9.918;2023-05-07T14:43:14;5.53;;;5.03;;
11791;SDS011;5953;52.372;9.918;2023-05-07T14:45:42;5.00;;;4.50;;
11791;SDS011;5953;52.372;9.918;2023-05-07T14:48:09;4.77;;;4.37;;
11791;SDS011;5953;52.372;9.918;2023-05-07T14:50:41;6.57;;;4.30;;
11791;SDS011;5953;52.372;9.918;2023-05-07T14:53:09;5.57;;;4.97;;
11791;SDS011;5953;52.372;9.918;2023-05-07T14:55:37;5.57;;;5.07;;
11791;SDS011;5953;52.372;9.918;2023-05-07T14:58:05;5.20;;;4.63;;
11791;SDS011;5953;52.372;9.918;2023-05-07T15:00:34;4.10;;;3.27;;
11791;SDS011;5953;52.372;9.918;2023-05-07T15:03:05;5.80;;;4.90;;
11791;SDS011;5953;52.372;9.918;2023-05-07T15:05:35;6.63;;;5.67;;
11791;SDS011;5953;52.372;9.918;2023-05-07T15:08:05;5.17;;;3.90;;
11791;SDS011;5953;52.372;9.918;2023-05-07T15:10:34;5.03;;;4.43;;
11791;SDS011;5953;52.372;9.918;2023-05-07T15:13:07;8.17;;;5.93;;